sensor_id;sensor_type;location;lat;lon;timestamp;P1;durP1;ratioP1;P2;durP2;ratioP2
30048;SDS011;16879;50.852;15.602;2023-02-03T00:02:08;54.58;;;19.85;;
30048;SDS011;16879;50.852;15.602;2023-02-03T00:04:34;41.92;;;15.35;;
30048;SDS011;16879;50.852;15.602;2023-02-03T00:07:02;32.50;;;13.57;;
30048;SDS011;16879;50.852;15.602;2023-02-03T00:09:28;37.35;;;15.10;;
30048;SDS011;16879;50.852;15.602;2023-02-03T00:11:55;33.88;;;15.10;;
30048;SDS011;16879;50.852;15.602;2023-02-03T00:16:58;29.67;;;11.57;;
30048;SDS011;16879;50.852;15.602;2023-02-03T00:19:27;23.75;;;10.23;;
30048;SDS011;16879;50.852;15.602;2023-02-03T00:21:54;14.10;;;6.85;;
30048;SDS011;16879;50.852;15.602;2023-02-03T00:24:20;15.63;;;6.63;;
30048;SDS011;16879;50.852;15.602;2023-02-03T00:26:49;18.33;;;7.28;;
30048;SDS011;16879;50.852;15.602;2023-02-03T00:29:18;20.35;;;7.25;;
30048;SDS011;16879;50.852;15.602;2023-02-03T00:31:49;13.18;;;6.35;;
30048;SDS011;16879;50.852;15.602;2023-02-03T00:34:18;12.23;;;5.82;;
30048;SDS011;16879;50.852;15.602;2023-02-03T00:36:44;13.30;;;5.43;;
30048;SDS011;16879;50.852;15.602;2023-02-03T00:39:12;16.08;;;5.20;;
30048;SDS011;16879;50.852;15.602;2023-02-03T00:41:39;8.50;;;4.22;;
30048;SDS011;16879;50.852;15.602;2023-02-03T00:44:06;12.75;;;3.45;;
30048;SDS011;16879;50.852;15.602;2023-02-03T00:46:32;14.73;;;6.63;;
30048;SDS011;16879;50.852;15.602;2023-02-03T00:49:01;17.35;;;6.97;;
30048;SDS011;16879;50.852;15.602;2023-02-03T00:51:39;14.38;;;6.82;;
30048;SDS011;16879;50.852;15.602;2023-02-03T00:54:08;15.15;;;6.53;;
30048;SDS011;16879;50.852;15.602;2023-02-03T00:56:35;14.05;;;4.95;;
30048;SDS011;16879;50.852;15.602;2023-02-03T00:59:02;10.77;;;4.07;;
30048;SDS011;16879;50.852;15.602;2023-02-03T01:01:28;10.68;;;4.05;;
30048;SDS011;16879;50.852;15.602;2023-02-03T01:03:55;8.30;;;3.63;;
30048;SDS011;16879;50.852;15.602;2023-02-03T01:06:26;11.38;;;4.15;;
30048;SDS011;16879;50.852;15.602;2023-02-03T01:08:53;6.57;;;3.25;;
30048;SDS011;16879;50.852;15.602;2023-02-03T01:11:25;8.40;;;4.70;;
30048;SDS011;16879;50.852;15.602;2023-02-03T01:13:55;10.70;;;4.07;;
30048;SDS011;16879;50.852;15.602;2023-02-03T01:16:34;6.32;;;2.90;;
30048;SDS011;16879;50.852;15.602;2023-02-03T01:19:04;6.47;;;3.67;;
30048;SDS011;16879;50.852;15.602;2023-02-03T01:21:31;9.90;;;3.17;;
30048;SDS011;16879;50.852;15.602;2023-02-03T01:23:58;8.30;;;3.42;;
30048;SDS011;16879;50.852;15.602;2023-02-03T01:26:26;7.35;;;2.90;;
30048;SDS011;16879;50.852;15.602;2023-02-03T01:28:53;5.75;;;2.47;;
30048;SDS011;16879;50.852;15.602;2023-02-03T01:31:21;8.73;;;2.85;;
30048;SDS011;16879;50.852;15.602;2023-02-03T01:33:49;4.15;;;2.25;;
30048;SDS011;16879;50.852;15.602;2023-02-03T01:36:16;8.60;;;2.38;;
30048;SDS011;16879;50.852;15.602;2023-02-03T01:41:20;5.85;;;2.60;;
30048;SDS011;16879;50.852;15.602;2023-02-03T01:43:48;6.32;;;1.88;;
30048;SDS011;16879;50.852;15.602;2023-02-03T01:46:21;5.03;;;2.42;;
30048;SDS011;16879;50.852;15.602;2023-02-03T01:48:50;5.68;;;2.20;;
30048;SDS011;16879;50.852;15.602;2023-02-03T01:51:16;6.25;;;2.50;;
30048;SDS011;16879;50.852;15.602;2023-02-03T01:53:43;7.28;;;2.40;;
30048;SDS011;16879;50.852;15.602;2023-02-03T01:56:10;10.07;;;3.38;;
30048;SDS011;16879;50.852;15.602;2023-02-03T01:58:37;6.05;;;2.63;;
30048;SDS011;16879;50.852;15.602;2023-02-03T02:01:04;4.28;;;2.63;;
30048;SDS011;16879;50.852;15.602;2023-02-03T02:03:35;7.25;;;3.13;;
30048;SDS011;16879;50.852;15.602;2023-02-03T02:06:05;5.05;;;2.78;;
30048;SDS011;16879;50.852;15.602;2023-02-03T02:08:31;7.63;;;3.75;;
30048;SDS011;16879;50.852;15.602;2023-02-03T02:10:58;12.57;;;3.65;;
30048;SDS011;16879;50.852;15.602;2023-02-03T02:13:24;6.32;;;2.90;;
30048;SDS011;16879;50.852;15.602;2023-02-03T02:15:56;7.28;;;3.42;;
30048;SDS011;16879;50.852;15.602;2023-02-03T02:18:35;7.75;;;3.17;;
30048;SDS011;16879;50.852;15.602;2023-02-03T02:24:09;7.38;;;3.45;;
30048;SDS011;16879;50.852;15.602;2023-02-03T02:26:50;10.30;;;4.63;;
30048;SDS011;16879;50.852;15.602;2023-02-03T02:29:37;6.22;;;3.67;;
30048;SDS011;16879;50.852;15.602;2023-02-03T02:35:02;5.43;;;3.45;;
30048;SDS011;16879;50.852;15.602;2023-02-03T02:40:14;9.55;;;3.58;;
30048;SDS011;16879;50.852;15.602;2023-02-03T02:45:49;5.65;;;3.15;;
30048;SDS011;16879;50.852;15.602;2023-02-03T02:48:18;8.70;;;3.10;;
30048;SDS011;16879;50.852;15.602;2023-02-03T02:50:47;8.25;;;3.28;;
30048;SDS011;16879;50.852;15.602;2023-02-03T02:53:14;8.23;;;3.78;;
30048;SDS011;16879;50.852;15.602;2023-02-03T02:55:41;7.53;;;3.20;;
30048;SDS011;16879;50.852;15.602;2023-02-03T02:58:09;6.43;;;3.05;;
30048;SDS011;16879;50.852;15.602;2023-02-03T03:00:37;10.90;;;3.75;;
30048;SDS011;16879;50.852;15.602;2023-02-03T03:03:13;5.20;;;2.75;;
30048;SDS011;16879;50.852;15.602;2023-02-03T03:05:40;8.40;;;3.85;;
30048;SDS011;16879;50.852;15.602;2023-02-03T03:08:07;9.32;;;3.00;;
30048;SDS011;16879;50.852;15.602;2023-02-03T03:10:36;6.10;;;2.45;;
30048;SDS011;16879;50.852;15.602;2023-02-03T03:13:04;5.22;;;3.75;;
30048;SDS011;16879;50.852;15.602;2023-02-03T03:15:32;3.25;;;2.05;;
30048;SDS011;16879;50.852;15.602;2023-02-03T03:20:28;7.03;;;3.15;;
30048;SDS011;16879;50.852;15.602;2023-02-03T03:23:06;9.88;;;3.58;;
30048;SDS011;16879;50.852;15.602;2023-02-03T03:25:38;4.25;;;2.35;;
30048;SDS011;16879;50.852;15.602;2023-02-03T03:28:07;4.72;;;2.83;;
30048;SDS011;16879;50.852;15.602;2023-02-03T03:30:35;4.68;;;3.10;;
30048;SDS011;16879;50.852;15.602;2023-02-03T03:33:02;4.63;;;3.08;;
30048;SDS011;16879;50.852;15.602;2023-02-03T03:35:30;5.97;;;3.40;;
30048;SDS011;16879;50.852;15.602;2023-02-03T03:37:59;12.35;;;4.65;;
30048;SDS011;16879;50.852;15.602;2023-02-03T03:40:30;4.05;;;2.33;;
30048;SDS011;16879;50.852;15.602;2023-02-03T03:42:58;3.63;;;2.33;;
30048;SDS011;16879;50.852;15.602;2023-02-03T03:45:27;9.82;;;2.65;;
30048;SDS011;16879;50.852;15.602;2023-02-03T03:47:55;3.80;;;2.40;;
30048;SDS011;16879;50.852;15.602;2023-02-03T03:50:24;3.03;;;2.00;;
30048;SDS011;16879;50.852;15.602;2023-02-03T03:52:51;9.82;;;3.85;;
30048;SDS011;16879;50.852;15.602;2023-02-03T03:55:19;33.13;;;11.57;;
30048;SDS011;16879;50.852;15.602;2023-02-03T03:57:48;109.32;;;34.25;;
30048;SDS011;16879;50.852;15.602;2023-02-03T04:00:19;93.00;;;29.43;;
30048;SDS011;16879;50.852;15.602;2023-02-03T04:02:49;60.90;;;19.35;;
30048;SDS011;16879;50.852;15.602;2023-02-03T04:05:16;33.47;;;11.75;;
30048;SDS011;16879;50.852;15.602;2023-02-03T04:07:44;34.92;;;11.88;;
30048;SDS011;16879;50.852;15.602;2023-02-03T04:12:39;74.00;;;25.83;;
30048;SDS011;16879;50.852;15.602;2023-02-03T04:15:05;32.47;;;12.32;;
30048;SDS011;16879;50.852;15.602;2023-02-03T04:17:32;54.42;;;20.67;;
30048;SDS011;16879;50.852;15.602;2023-02-03T04:20:00;38.25;;;13.68;;
30048;SDS011;16879;50.852;15.602;2023-02-03T04:22:26;26.30;;;9.90;;
30048;SDS011;16879;50.852;15.602;2023-02-03T04:24:52;22.52;;;9.40;;
30048;SDS011;16879;50.852;15.602;2023-02-03T04:27:18;26.42;;;9.18;;
30048;SDS011;16879;50.852;15.602;2023-02-03T04:29:45;19.70;;;8.55;;
30048;SDS011;16879;50.852;15.602;2023-02-03T04:32:11;26.83;;;12.15;;
30048;SDS011;16879;50.852;15.602;2023-02-03T04:34:37;23.25;;;9.20;;
30048;SDS011;16879;50.852;15.602;2023-02-03T04:37:04;14.65;;;9.10;;
30048;SDS011;16879;50.852;15.602;2023-02-03T04:39:30;22.80;;;10.95;;
30048;SDS011;16879;50.852;15.602;2023-02-03T04:41:56;29.10;;;12.70;;
30048;SDS011;16879;50.852;15.602;2023-02-03T04:44:22;25.45;;;11.85;;
30048;SDS011;16879;50.852;15.602;2023-02-03T04:46:49;23.00;;;12.10;;
30048;SDS011;16879;50.852;15.602;2023-02-03T04:49:15;26.25;;;12.90;;
30048;SDS011;16879;50.852;15.602;2023-02-03T04:51:42;22.52;;;11.52;;
30048;SDS011;16879;50.852;15.602;2023-02-03T04:54:08;17.85;;;11.18;;
30048;SDS011;16879;50.852;15.602;2023-02-03T04:56:35;14.98;;;8.75;;
30048;SDS011;16879;50.852;15.602;2023-02-03T04:59:01;19.20;;;10.30;;
30048;SDS011;16879;50.852;15.602;2023-02-03T05:01:27;17.17;;;8.95;;
30048;SDS011;16879;50.852;15.602;2023-02-03T05:03:54;16.17;;;8.48;;
30048;SDS011;16879;50.852;15.602;2023-02-03T05:06:23;7.32;;;4.30;;
30048;SDS011;16879;50.852;15.602;2023-02-03T05:08:50;10.10;;;5.63;;
30048;SDS011;16879;50.852;15.602;2023-02-03T05:11:16;14.65;;;8.30;;
30048;SDS011;16879;50.852;15.602;2023-02-03T05:13:43;19.63;;;9.00;;
30048;SDS011;16879;50.852;15.602;2023-02-03T05:16:09;8.48;;;4.18;;
30048;SDS011;16879;50.852;15.602;2023-02-03T05:18:35;11.27;;;3.70;;
30048;SDS011;16879;50.852;15.602;2023-02-03T05:21:02;4.97;;;2.78;;
30048;SDS011;16879;50.852;15.602;2023-02-03T05:23:28;2.13;;;1.17;;
30048;SDS011;16879;50.852;15.602;2023-02-03T05:25:54;1.35;;;1.00;;
30048;SDS011;16879;50.852;15.602;2023-02-03T05:28:20;1.40;;;1.20;;
30048;SDS011;16879;50.852;15.602;2023-02-03T05:30:47;1.23;;;0.90;;
30048;SDS011;16879;50.852;15.602;2023-02-03T05:33:13;1.20;;;0.82;;
30048;SDS011;16879;50.852;15.602;2023-02-03T05:35:39;1.40;;;1.00;;
30048;SDS011;16879;50.852;15.602;2023-02-03T05:38:06;3.35;;;1.30;;
30048;SDS011;16879;50.852;15.602;2023-02-03T05:40:32;3.53;;;1.73;;
30048;SDS011;16879;50.852;15.602;2023-02-03T05:43:17;2.42;;;0.98;;
30048;SDS011;16879;50.852;15.602;2023-02-03T05:45:43;2.22;;;1.50;;
30048;SDS011;16879;50.852;15.602;2023-02-03T05:48:09;2.97;;;1.40;;
30048;SDS011;16879;50.852;15.602;2023-02-03T05:50:35;0.50;;;0.50;;
30048;SDS011;16879;50.852;15.602;2023-02-03T05:53:02;1.00;;;0.60;;
30048;SDS011;16879;50.852;15.602;2023-02-03T05:55:29;3.50;;;0.77;;
30048;SDS011;16879;50.852;15.602;2023-02-03T05:57:56;1.23;;;0.93;;
30048;SDS011;16879;50.852;15.602;2023-02-03T06:00:24;0.70;;;0.70;;
30048;SDS011;16879;50.852;15.602;2023-02-03T06:02:51;1.17;;;0.88;;
30048;SDS011;16879;50.852;15.602;2023-02-03T06:05:17;2.30;;;1.75;;
30048;SDS011;16879;50.852;15.602;2023-02-03T06:07:43;2.22;;;1.20;;
30048;SDS011;16879;50.852;15.602;2023-02-03T06:10:10;2.35;;;0.90;;
30048;SDS011;16879;50.852;15.602;2023-02-03T06:12:37;2.42;;;1.10;;
30048;SDS011;16879;50.852;15.602;2023-02-03T06:15:03;3.10;;;1.60;;
30048;SDS011;16879;50.852;15.602;2023-02-03T06:17:30;4.07;;;1.88;;
30048;SDS011;16879;50.852;15.602;2023-02-03T06:19:56;2.58;;;1.27;;
30048;SDS011;16879;50.852;15.602;2023-02-03T06:22:23;1.98;;;1.23;;
30048;SDS011;16879;50.852;15.602;2023-02-03T06:24:49;1.55;;;1.23;;
30048;SDS011;16879;50.852;15.602;2023-02-03T06:27:15;2.35;;;1.40;;
30048;SDS011;16879;50.852;15.602;2023-02-03T06:29:41;1.13;;;1.02;;
30048;SDS011;16879;50.852;15.602;2023-02-03T06:32:08;1.50;;;1.20;;
30048;SDS011;16879;50.852;15.602;2023-02-03T06:34:34;1.58;;;1.40;;
30048;SDS011;16879;50.852;15.602;2023-02-03T06:37:00;1.13;;;0.70;;
30048;SDS011;16879;50.852;15.602;2023-02-03T06:39:26;1.13;;;1.02;;
30048;SDS011;16879;50.852;15.602;2023-02-03T06:41:53;1.85;;;1.05;;
30048;SDS011;16879;50.852;15.602;2023-02-03T06:44:20;0.90;;;0.77;;
30048;SDS011;16879;50.852;15.602;2023-02-03T06:46:46;1.20;;;0.77;;
30048;SDS011;16879;50.852;15.602;2023-02-03T06:49:14;1.65;;;1.55;;
30048;SDS011;16879;50.852;15.602;2023-02-03T06:51:43;1.30;;;1.02;;
30048;SDS011;16879;50.852;15.602;2023-02-03T06:54:10;1.35;;;1.10;;
30048;SDS011;16879;50.852;15.602;2023-02-03T06:56:36;4.28;;;2.17;;
30048;SDS011;16879;50.852;15.602;2023-02-03T06:59:03;2.25;;;1.17;;
30048;SDS011;16879;50.852;15.602;2023-02-03T07:01:29;1.88;;;1.40;;
30048;SDS011;16879;50.852;15.602;2023-02-03T07:03:56;3.28;;;1.80;;
30048;SDS011;16879;50.852;15.602;2023-02-03T07:06:23;3.75;;;1.92;;
30048;SDS011;16879;50.852;15.602;2023-02-03T07:08:59;2.22;;;2.03;;
30048;SDS011;16879;50.852;15.602;2023-02-03T07:11:26;1.83;;;1.20;;
30048;SDS011;16879;50.852;15.602;2023-02-03T07:13:52;1.88;;;1.10;;
30048;SDS011;16879;50.852;15.602;2023-02-03T07:16:18;5.18;;;2.75;;
30048;SDS011;16879;50.852;15.602;2023-02-03T07:18:45;3.53;;;2.05;;
30048;SDS011;16879;50.852;15.602;2023-02-03T07:21:12;2.80;;;1.52;;
30048;SDS011;16879;50.852;15.602;2023-02-03T07:23:38;3.28;;;1.48;;
30048;SDS011;16879;50.852;15.602;2023-02-03T07:26:05;3.33;;;2.70;;
30048;SDS011;16879;50.852;15.602;2023-02-03T07:28:35;2.83;;;1.50;;
30048;SDS011;16879;50.852;15.602;2023-02-03T07:31:02;1.95;;;1.75;;
30048;SDS011;16879;50.852;15.602;2023-02-03T07:33:34;3.33;;;2.00;;
30048;SDS011;16879;50.852;15.602;2023-02-03T07:36:03;2.88;;;2.08;;
30048;SDS011;16879;50.852;15.602;2023-02-03T07:38:29;4.00;;;2.17;;
30048;SDS011;16879;50.852;15.602;2023-02-03T07:40:55;3.10;;;1.65;;
30048;SDS011;16879;50.852;15.602;2023-02-03T07:43:22;3.25;;;2.22;;
30048;SDS011;16879;50.852;15.602;2023-02-03T07:45:48;2.88;;;2.40;;
30048;SDS011;16879;50.852;15.602;2023-02-03T07:48:14;2.90;;;2.05;;
30048;SDS011;16879;50.852;15.602;2023-02-03T07:50:41;5.57;;;3.08;;
30048;SDS011;16879;50.852;15.602;2023-02-03T07:53:07;3.50;;;2.38;;
30048;SDS011;16879;50.852;15.602;2023-02-03T07:55:33;3.28;;;2.55;;
30048;SDS011;16879;50.852;15.602;2023-02-03T07:58:00;4.35;;;2.55;;
30048;SDS011;16879;50.852;15.602;2023-02-03T08:00:26;2.30;;;1.98;;
30048;SDS011;16879;50.852;15.602;2023-02-03T08:02:52;2.47;;;2.00;;
30048;SDS011;16879;50.852;15.602;2023-02-03T08:05:19;2.55;;;2.17;;
30048;SDS011;16879;50.852;15.602;2023-02-03T08:07:45;3.60;;;2.80;;
30048;SDS011;16879;50.852;15.602;2023-02-03T08:10:12;2.05;;;1.70;;
30048;SDS011;16879;50.852;15.602;2023-02-03T08:12:39;5.40;;;2.10;;
30048;SDS011;16879;50.852;15.602;2023-02-03T08:15:07;3.53;;;2.15;;
30048;SDS011;16879;50.852;15.602;2023-02-03T08:17:33;2.85;;;1.90;;
30048;SDS011;16879;50.852;15.602;2023-02-03T08:19:59;2.20;;;1.65;;
30048;SDS011;16879;50.852;15.602;2023-02-03T08:22:25;1.67;;;1.55;;
30048;SDS011;16879;50.852;15.602;2023-02-03T08:24:52;4.22;;;2.33;;
30048;SDS011;16879;50.852;15.602;2023-02-03T08:27:19;3.70;;;2.53;;
30048;SDS011;16879;50.852;15.602;2023-02-03T08:29:45;3.00;;;2.58;;
30048;SDS011;16879;50.852;15.602;2023-02-03T08:32:13;6.35;;;4.05;;
30048;SDS011;16879;50.852;15.602;2023-02-03T08:34:39;3.63;;;2.63;;
30048;SDS011;16879;50.852;15.602;2023-02-03T08:37:05;3.20;;;2.30;;
30048;SDS011;16879;50.852;15.602;2023-02-03T08:39:32;4.03;;;2.70;;
30048;SDS011;16879;50.852;15.602;2023-02-03T08:41:58;2.42;;;2.17;;
30048;SDS011;16879;50.852;15.602;2023-02-03T08:44:24;3.22;;;2.33;;
30048;SDS011;16879;50.852;15.602;2023-02-03T08:46:51;2.40;;;2.03;;
30048;SDS011;16879;50.852;15.602;2023-02-03T08:49:18;5.03;;;2.08;;
30048;SDS011;16879;50.852;15.602;2023-02-03T08:51:45;3.38;;;2.30;;
30048;SDS011;16879;50.852;15.602;2023-02-03T08:54:12;2.50;;;1.85;;
30048;SDS011;16879;50.852;15.602;2023-02-03T08:56:39;3.05;;;1.73;;
30048;SDS011;16879;50.852;15.602;2023-02-03T08:59:05;2.70;;;1.52;;
30048;SDS011;16879;50.852;15.602;2023-02-03T09:01:32;4.63;;;1.95;;
30048;SDS011;16879;50.852;15.602;2023-02-03T09:04:00;4.05;;;2.45;;
30048;SDS011;16879;50.852;15.602;2023-02-03T09:06:34;1.50;;;1.40;;
30048;SDS011;16879;50.852;15.602;2023-02-03T09:09:14;3.17;;;1.63;;
30048;SDS011;16879;50.852;15.602;2023-02-03T09:11:46;3.03;;;1.85;;
30048;SDS011;16879;50.852;15.602;2023-02-03T09:14:21;2.45;;;1.20;;
30048;SDS011;16879;50.852;15.602;2023-02-03T09:16:53;1.67;;;1.13;;
30048;SDS011;16879;50.852;15.602;2023-02-03T09:19:19;2.55;;;1.45;;
30048;SDS011;16879;50.852;15.602;2023-02-03T09:21:45;1.95;;;1.20;;
30048;SDS011;16879;50.852;15.602;2023-02-03T09:24:13;2.05;;;1.65;;
30048;SDS011;16879;50.852;15.602;2023-02-03T09:26:43;3.17;;;1.70;;
30048;SDS011;16879;50.852;15.602;2023-02-03T09:29:09;2.67;;;1.10;;
30048;SDS011;16879;50.852;15.602;2023-02-03T09:31:36;3.10;;;2.05;;
30048;SDS011;16879;50.852;15.602;2023-02-03T09:34:02;3.45;;;1.98;;
30048;SDS011;16879;50.852;15.602;2023-02-03T09:36:28;3.28;;;1.52;;
30048;SDS011;16879;50.852;15.602;2023-02-03T09:38:55;3.38;;;1.88;;
30048;SDS011;16879;50.852;15.602;2023-02-03T09:46:55;2.20;;;1.25;;
30048;SDS011;16879;50.852;15.602;2023-02-03T09:49:38;2.70;;;1.13;;
30048;SDS011;16879;50.852;15.602;2023-02-03T09:52:13;1.65;;;1.10;;
30048;SDS011;16879;50.852;15.602;2023-02-03T09:54:42;1.52;;;1.00;;
30048;SDS011;16879;50.852;15.602;2023-02-03T09:57:13;3.20;;;1.13;;
30048;SDS011;16879;50.852;15.602;2023-02-03T09:59:41;1.50;;;1.30;;
30048;SDS011;16879;50.852;15.602;2023-02-03T10:04:53;1.52;;;1.42;;
30048;SDS011;16879;50.852;15.602;2023-02-03T10:12:46;3.35;;;1.45;;
30048;SDS011;16879;50.852;15.602;2023-02-03T10:18:08;1.27;;;0.90;;
30048;SDS011;16879;50.852;15.602;2023-02-03T10:20:38;2.95;;;2.10;;
30048;SDS011;16879;50.852;15.602;2023-02-03T10:23:08;3.50;;;3.17;;
30048;SDS011;16879;50.852;15.602;2023-02-03T10:25:41;2.83;;;2.03;;
30048;SDS011;16879;50.852;15.602;2023-02-03T10:28:10;1.67;;;1.05;;
30048;SDS011;16879;50.852;15.602;2023-02-03T10:30:40;1.10;;;1.00;;
30048;SDS011;16879;50.852;15.602;2023-02-03T10:33:13;2.78;;;1.45;;
30048;SDS011;16879;50.852;15.602;2023-02-03T10:35:53;2.33;;;1.27;;
30048;SDS011;16879;50.852;15.602;2023-02-03T10:41:26;1.05;;;0.80;;
30048;SDS011;16879;50.852;15.602;2023-02-03T10:43:53;1.00;;;0.82;;
30048;SDS011;16879;50.852;15.602;2023-02-03T10:46:29;2.58;;;1.83;;
30048;SDS011;16879;50.852;15.602;2023-02-03T10:48:56;0.95;;;0.77;;
30048;SDS011;16879;50.852;15.602;2023-02-03T10:51:26;2.70;;;1.45;;
30048;SDS011;16879;50.852;15.602;2023-02-03T10:53:56;1.98;;;1.27;;
30048;SDS011;16879;50.852;15.602;2023-02-03T10:56:26;1.70;;;1.25;;
30048;SDS011;16879;50.852;15.602;2023-02-03T10:58:58;2.35;;;0.95;;
30048;SDS011;16879;50.852;15.602;2023-02-03T11:04:00;1.08;;;0.85;;
30048;SDS011;16879;50.852;15.602;2023-02-03T11:06:30;1.58;;;1.00;;
30048;SDS011;16879;50.852;15.602;2023-02-03T11:08:56;1.65;;;1.08;;
30048;SDS011;16879;50.852;15.602;2023-02-03T11:11:24;1.67;;;1.17;;
30048;SDS011;16879;50.852;15.602;2023-02-03T11:13:54;5.93;;;3.13;;
30048;SDS011;16879;50.852;15.602;2023-02-03T11:16:21;4.38;;;2.15;;
30048;SDS011;16879;50.852;15.602;2023-02-03T11:19:00;2.63;;;1.83;;
30048;SDS011;16879;50.852;15.602;2023-02-03T11:24:03;2.90;;;1.85;;
30048;SDS011;16879;50.852;15.602;2023-02-03T11:26:36;6.65;;;2.65;;
30048;SDS011;16879;50.852;15.602;2023-02-03T11:29:13;18.33;;;5.97;;
30048;SDS011;16879;50.852;15.602;2023-02-03T11:31:41;5.50;;;2.40;;
30048;SDS011;16879;50.852;15.602;2023-02-03T11:34:15;2.85;;;1.65;;
30048;SDS011;16879;50.852;15.602;2023-02-03T11:36:42;8.07;;;3.58;;
30048;SDS011;16879;50.852;15.602;2023-02-03T11:39:19;4.75;;;2.80;;
30048;SDS011;16879;50.852;15.602;2023-02-03T11:41:46;6.45;;;3.13;;
30048;SDS011;16879;50.852;15.602;2023-02-03T11:44:16;3.53;;;2.17;;
30048;SDS011;16879;50.852;15.602;2023-02-03T11:50:12;3.30;;;1.73;;
30048;SDS011;16879;50.852;15.602;2023-02-03T11:58:18;2.38;;;1.58;;
30048;SDS011;16879;50.852;15.602;2023-02-03T12:04:16;3.45;;;1.50;;
30048;SDS011;16879;50.852;15.602;2023-02-03T12:06:58;6.55;;;3.33;;
30048;SDS011;16879;50.852;15.602;2023-02-03T12:17:23;2.28;;;1.30;;
30048;SDS011;16879;50.852;15.602;2023-02-03T12:19:55;2.72;;;1.80;;
30048;SDS011;16879;50.852;15.602;2023-02-03T12:22:30;5.70;;;2.70;;
30048;SDS011;16879;50.852;15.602;2023-02-03T12:25:04;3.35;;;2.10;;
30048;SDS011;16879;50.852;15.602;2023-02-03T12:28:05;1.38;;;1.10;;
30048;SDS011;16879;50.852;15.602;2023-02-03T12:30:43;1.38;;;0.90;;
30048;SDS011;16879;50.852;15.602;2023-02-03T12:33:16;1.13;;;1.00;;
30048;SDS011;16879;50.852;15.602;2023-02-03T12:38:16;1.80;;;1.20;;
30048;SDS011;16879;50.852;15.602;2023-02-03T12:40:50;2.50;;;1.50;;
30048;SDS011;16879;50.852;15.602;2023-02-03T12:43:20;2.85;;;1.17;;
30048;SDS011;16879;50.852;15.602;2023-02-03T12:45:56;1.88;;;1.15;;
30048;SDS011;16879;50.852;15.602;2023-02-03T12:48:28;3.05;;;1.60;;
30048;SDS011;16879;50.852;15.602;2023-02-03T12:51:01;4.30;;;2.10;;
30048;SDS011;16879;50.852;15.602;2023-02-03T12:53:32;3.03;;;1.67;;
30048;SDS011;16879;50.852;15.602;2023-02-03T12:56:03;3.80;;;1.83;;
30048;SDS011;16879;50.852;15.602;2023-02-03T12:58:34;3.55;;;1.90;;
30048;SDS011;16879;50.852;15.602;2023-02-03T13:01:06;2.75;;;1.90;;
30048;SDS011;16879;50.852;15.602;2023-02-03T13:03:49;2.42;;;2.10;;
30048;SDS011;16879;50.852;15.602;2023-02-03T13:06:19;2.55;;;1.67;;
30048;SDS011;16879;50.852;15.602;2023-02-03T13:11:55;5.40;;;3.90;;
30048;SDS011;16879;50.852;15.602;2023-02-03T13:14:23;9.15;;;3.70;;
30048;SDS011;16879;50.852;15.602;2023-02-03T13:16:54;16.60;;;9.25;;
30048;SDS011;16879;50.852;15.602;2023-02-03T13:19:24;3.72;;;2.30;;
30048;SDS011;16879;50.852;15.602;2023-02-03T13:21:51;14.23;;;8.38;;
30048;SDS011;16879;50.852;15.602;2023-02-03T13:24:19;7.93;;;4.50;;
30048;SDS011;16879;50.852;15.602;2023-02-03T13:37:25;16.17;;;5.80;;
30048;SDS011;16879;50.852;15.602;2023-02-03T13:42:56;2.47;;;1.02;;
30048;SDS011;16879;50.852;15.602;2023-02-03T13:45:25;5.57;;;2.55;;
30048;SDS011;16879;50.852;15.602;2023-02-03T13:47:53;10.85;;;3.78;;
30048;SDS011;16879;50.852;15.602;2023-02-03T13:50:21;20.27;;;7.78;;
30048;SDS011;16879;50.852;15.602;2023-02-03T13:52:53;16.80;;;5.95;;
30048;SDS011;16879;50.852;15.602;2023-02-03T13:55:24;15.55;;;5.28;;
30048;SDS011;16879;50.852;15.602;2023-02-03T13:57:51;10.38;;;4.75;;
30048;SDS011;16879;50.852;15.602;2023-02-03T14:03:02;22.58;;;5.18;;
30048;SDS011;16879;50.852;15.602;2023-02-03T14:05:42;20.55;;;5.28;;
30048;SDS011;16879;50.852;15.602;2023-02-03T14:13:37;44.97;;;12.43;;
30048;SDS011;16879;50.852;15.602;2023-02-03T14:16:14;39.50;;;10.43;;
30048;SDS011;16879;50.852;15.602;2023-02-03T14:18:47;31.80;;;8.48;;
30048;SDS011;16879;50.852;15.602;2023-02-03T14:21:18;44.75;;;14.68;;
30048;SDS011;16879;50.852;15.602;2023-02-03T14:23:50;33.35;;;10.98;;
30048;SDS011;16879;50.852;15.602;2023-02-03T14:26:18;41.10;;;12.32;;
30048;SDS011;16879;50.852;15.602;2023-02-03T14:28:46;31.35;;;8.90;;
30048;SDS011;16879;50.852;15.602;2023-02-03T14:31:23;10.95;;;4.22;;
30048;SDS011;16879;50.852;15.602;2023-02-03T14:33:54;20.77;;;5.53;;
30048;SDS011;16879;50.852;15.602;2023-02-03T14:36:45;50.63;;;13.65;;
30048;SDS011;16879;50.852;15.602;2023-02-03T14:41:59;73.35;;;26.17;;
30048;SDS011;16879;50.852;15.602;2023-02-03T14:47:25;35.08;;;12.02;;
30048;SDS011;16879;50.852;15.602;2023-02-03T14:57:42;28.20;;;7.82;;
30048;SDS011;16879;50.852;15.602;2023-02-03T15:07:55;25.08;;;6.15;;
30048;SDS011;16879;50.852;15.602;2023-02-03T15:10:25;24.58;;;7.20;;
30048;SDS011;16879;50.852;15.602;2023-02-03T15:12:52;18.00;;;4.80;;
30048;SDS011;16879;50.852;15.602;2023-02-03T15:15:26;22.20;;;8.45;;
30048;SDS011;16879;50.852;15.602;2023-02-03T15:17:57;34.40;;;8.68;;
30048;SDS011;16879;50.852;15.602;2023-02-03T15:20:33;19.73;;;7.93;;
30048;SDS011;16879;50.852;15.602;2023-02-03T15:23:00;24.52;;;8.38;;
30048;SDS011;16879;50.852;15.602;2023-02-03T15:25:28;21.80;;;5.97;;
30048;SDS011;16879;50.852;15.602;2023-02-03T15:28:16;23.38;;;6.75;;
30048;SDS011;16879;50.852;15.602;2023-02-03T15:30:43;25.48;;;7.00;;
30048;SDS011;16879;50.852;15.602;2023-02-03T15:33:15;18.92;;;4.30;;
30048;SDS011;16879;50.852;15.602;2023-02-03T15:35:45;23.75;;;4.32;;
30048;SDS011;16879;50.852;15.602;2023-02-03T15:38:17;20.33;;;5.05;;
30048;SDS011;16879;50.852;15.602;2023-02-03T15:40:46;14.07;;;4.35;;
30048;SDS011;16879;50.852;15.602;2023-02-03T15:43:20;15.18;;;4.13;;
30048;SDS011;16879;50.852;15.602;2023-02-03T15:50:54;14.10;;;2.60;;
30048;SDS011;16879;50.852;15.602;2023-02-03T15:53:23;14.80;;;2.63;;
30048;SDS011;16879;50.852;15.602;2023-02-03T15:55:53;31.35;;;10.50;;
30048;SDS011;16879;50.852;15.602;2023-02-03T15:58:25;10.98;;;2.90;;
30048;SDS011;16879;50.852;15.602;2023-02-03T16:00:52;20.65;;;7.70;;
30048;SDS011;16879;50.852;15.602;2023-02-03T16:03:20;17.98;;;6.53;;
30048;SDS011;16879;50.852;15.602;2023-02-03T16:05:48;19.17;;;5.85;;
30048;SDS011;16879;50.852;15.602;2023-02-03T16:08:24;20.33;;;6.07;;
30048;SDS011;16879;50.852;15.602;2023-02-03T16:10:52;21.02;;;7.90;;
30048;SDS011;16879;50.852;15.602;2023-02-03T16:13:22;33.45;;;12.57;;
30048;SDS011;16879;50.852;15.602;2023-02-03T16:18:47;23.85;;;7.72;;
30048;SDS011;16879;50.852;15.602;2023-02-03T16:21:31;40.47;;;13.10;;
30048;SDS011;16879;50.852;15.602;2023-02-03T16:23:59;27.75;;;7.47;;
30048;SDS011;16879;50.852;15.602;2023-02-03T16:26:26;32.17;;;9.15;;
30048;SDS011;16879;50.852;15.602;2023-02-03T16:28:56;27.30;;;9.57;;
30048;SDS011;16879;50.852;15.602;2023-02-03T16:31:46;32.57;;;11.33;;
30048;SDS011;16879;50.852;15.602;2023-02-03T16:34:31;37.05;;;11.10;;
30048;SDS011;16879;50.852;15.602;2023-02-03T16:37:32;38.67;;;9.95;;
30048;SDS011;16879;50.852;15.602;2023-02-03T16:40:19;26.45;;;5.85;;
30048;SDS011;16879;50.852;15.602;2023-02-03T16:43:04;31.90;;;8.65;;
30048;SDS011;16879;50.852;15.602;2023-02-03T16:45:54;29.05;;;8.80;;